createdAt,value
2022-08-19T00:05:33.467Z,14.4
2022-08-19T00:11:54.191Z,14.2
2022-08-19T00:18:01.185Z,14.9
2022-08-19T00:24:11.470Z,13.9
2022-08-19T00:44:02.014Z,14.1
2022-08-19T00:50:18.206Z,14.5
2022-08-19T01:44:31.312Z,13.5
2022-08-19T02:11:20.514Z,14.8
2022-08-19T02:24:44.339Z,14.4
2022-08-19T03:19:22.599Z,15.7
2022-08-19T03:25:13.598Z,20
2022-08-19T03:31:52.361Z,14.3
2022-08-19T03:37:45.698Z,15.8
2022-08-19T03:43:36.657Z,15.6
2022-08-19T03:49:33.000Z,17.3
2022-08-19T03:55:21.297Z,17
2022-08-19T04:01:14.659Z,17.4
2022-08-19T04:07:07.719Z,16.3
2022-08-19T04:12:59.864Z,17.4
2022-08-19T04:18:52.191Z,16.2
2022-08-19T04:24:43.872Z,16.7
2022-08-19T04:30:35.500Z,17.6
2022-08-19T04:36:27.296Z,18.8
2022-08-19T04:42:19.079Z,21.7
2022-08-19T04:48:36.809Z,16.3
2022-08-19T04:54:43.203Z,18.4
2022-08-19T05:00:41.714Z,17.8
2022-08-19T05:06:33.827Z,18.2
2022-08-19T05:12:32.080Z,21.4
2022-08-19T05:18:23.817Z,27.8
2022-08-19T05:24:16.833Z,23.9
2022-08-19T05:30:08.235Z,22.5
2022-08-19T05:36:00.060Z,27.2
2022-08-19T05:41:50.017Z,25.6
2022-08-19T05:47:46.893Z,29.3
2022-08-19T05:53:39.084Z,25.4
2022-08-19T05:59:33.050Z,31.8
2022-08-19T06:05:26.792Z,41.1
2022-08-19T06:11:17.466Z,46.5
2022-08-19T06:17:11.754Z,48.3
2022-08-19T06:23:02.074Z,47
2022-08-19T06:28:52.117Z,45.8
2022-08-19T06:34:41.865Z,54.1
2022-08-19T06:40:32.138Z,48.9
2022-08-19T06:46:22.998Z,49.6
2022-08-19T06:52:16.853Z,52.2
2022-08-19T06:58:06.058Z,52.9
2022-08-19T07:03:57.477Z,58.8
2022-08-19T07:10:07.678Z,54.8
2022-08-19T07:15:57.097Z,54.9
2022-08-19T07:21:54.251Z,54.1
2022-08-19T07:27:57.845Z,50
2022-08-19T07:33:54.892Z,50.8
2022-08-19T07:39:43.891Z,49.5
2022-08-19T07:45:33.924Z,42.5
2022-08-19T07:51:41.628Z,40.2
2022-08-19T07:57:31.969Z,41.4
2022-08-19T08:03:23.296Z,42.4
2022-08-19T08:15:22.360Z,32.2
2022-08-19T08:21:18.009Z,30.2
2022-08-19T08:27:20.242Z,39.9
2022-08-19T08:39:22.242Z,37.1
2022-08-19T08:45:13.613Z,36.7
2022-08-19T08:51:12.652Z,32.3
2022-08-19T08:57:10.014Z,28.9
2022-08-19T09:03:02.407Z,23.7
2022-08-19T09:09:01.241Z,23.8
2022-08-19T09:16:09.752Z,25.7
2022-08-19T09:22:04.072Z,28.4
2022-08-19T09:28:25.536Z,31.2
2022-08-19T09:34:26.503Z,28.3
2022-08-19T09:40:24.745Z,32.1
2022-08-19T09:46:27.189Z,29.5
2022-08-19T09:52:26.315Z,28.3
2022-08-19T09:58:36.780Z,29.1
2022-08-19T10:04:34.377Z,32.9
2022-08-19T10:10:26.516Z,34.7
2022-08-19T10:16:20.561Z,38.5
2022-08-19T10:22:20.675Z,42.1
2022-08-19T10:28:15.405Z,40.2
2022-08-19T10:34:10.069Z,33.2
2022-08-19T10:40:16.116Z,32.6
2022-08-19T10:46:20.781Z,36.2
2022-08-19T10:52:27.692Z,29.8
2022-08-19T10:58:28.536Z,25.8
2022-08-19T11:04:20.827Z,24.8
2022-08-19T11:10:25.577Z,26.5
2022-08-19T11:16:18.089Z,28.9
2022-08-19T11:22:21.975Z,26.4
2022-08-19T11:28:18.112Z,21.2
2022-08-19T11:34:07.905Z,17
2022-08-19T11:39:59.464Z,16.3
2022-08-19T11:45:51.622Z,17.4
2022-08-19T11:51:42.780Z,15
2022-08-19T11:57:34.283Z,14.5
2022-08-19T12:03:26.596Z,14.9
2022-08-19T12:09:19.568Z,16.2
2022-08-19T12:15:16.109Z,15.9
2022-08-19T12:21:12.382Z,13
2022-08-19T12:27:49.777Z,16.5
2022-08-19T12:33:50.643Z,16.8
2022-08-19T12:39:45.538Z,22
2022-08-19T12:45:45.438Z,20.2
2022-08-19T12:51:43.019Z,18
2022-08-19T12:57:38.937Z,20
2022-08-19T13:03:40.869Z,21.7
2022-08-19T13:09:39.373Z,18.1
2022-08-19T13:15:31.342Z,20.4
2022-08-19T13:21:26.648Z,19.5
2022-08-19T13:27:39.708Z,20.5
2022-08-19T13:33:41.901Z,22.2
2022-08-19T13:39:34.340Z,17.2
2022-08-19T13:46:08.261Z,15.4
2022-08-19T13:52:01.110Z,20.2
2022-08-19T14:04:19.059Z,20.6
2022-08-19T14:10:10.413Z,16.5
2022-08-19T14:16:04.234Z,14.1
2022-08-19T14:21:54.863Z,10.6
2022-08-19T14:27:48.850Z,16.9
2022-08-19T14:33:43.396Z,16.6
2022-08-19T14:39:39.970Z,15.2
2022-08-19T14:45:47.057Z,16.2
2022-08-19T14:51:43.756Z,15.7
2022-08-19T14:57:36.812Z,14.8
2022-08-19T15:03:27.645Z,16.3
2022-08-19T15:09:19.618Z,19.7
2022-08-19T15:15:11.210Z,14.6
2022-08-19T15:21:00.560Z,15.9
2022-08-19T15:26:52.391Z,15.4
2022-08-19T15:32:49.146Z,14.7
2022-08-19T15:38:50.247Z,17.1
2022-08-19T15:44:40.719Z,13.7
2022-08-19T15:50:32.416Z,12.1
2022-08-19T15:56:28.782Z,10.2
2022-08-19T16:02:19.812Z,8.2
2022-08-19T16:08:24.031Z,8.5
2022-08-19T16:14:16.392Z,7
2022-08-19T16:20:07.522Z,6.6
2022-08-19T16:25:58.440Z,6.6
2022-08-19T16:31:51.060Z,6
2022-08-19T16:37:41.862Z,8.7
2022-08-19T16:43:33.381Z,6.9
2022-08-19T16:49:58.573Z,7.2
2022-08-19T16:55:47.703Z,9.3
2022-08-19T17:01:39.164Z,7.6
2022-08-19T17:07:36.066Z,5.4
2022-08-19T17:13:27.028Z,6.1
2022-08-19T17:19:18.782Z,5.3
2022-08-19T17:25:10.663Z,4
2022-08-19T17:31:02.380Z,4.2
2022-08-19T17:36:54.308Z,5.2
2022-08-19T17:42:47.568Z,5.7
2022-08-19T17:48:39.073Z,4
2022-08-19T17:54:37.248Z,8.1
2022-08-19T18:00:30.090Z,5.9
2022-08-19T18:06:26.067Z,5
2022-08-19T18:12:19.277Z,4.8
2022-08-19T18:18:20.408Z,6.6
2022-08-19T18:24:10.405Z,5.4
2022-08-19T18:30:03.119Z,6.4
2022-08-19T18:35:54.665Z,5.5
2022-08-19T18:41:47.964Z,5.9
2022-08-19T18:47:38.464Z,8.8
2022-08-19T18:53:29.202Z,7.3
2022-08-19T18:59:22.316Z,9.4
2022-08-19T19:05:12.700Z,9.2
2022-08-19T19:11:05.402Z,7.1
2022-08-19T19:16:59.156Z,6.5
2022-08-19T19:22:55.990Z,6.4
2022-08-19T19:28:51.515Z,6.8
2022-08-19T19:34:43.895Z,6.4
2022-08-19T19:40:35.480Z,5.1
2022-08-19T19:46:27.032Z,7.5
2022-08-19T19:52:18.812Z,6
2022-08-19T19:58:09.849Z,6.7
2022-08-19T20:04:01.063Z,6.7
2022-08-19T20:10:07.885Z,5.6
2022-08-19T20:15:58.948Z,7.2
2022-08-19T20:22:00.177Z,8.3
2022-08-19T20:27:50.671Z,5.9
2022-08-19T20:33:41.892Z,5.9
2022-08-19T20:39:33.849Z,5.8
2022-08-19T20:45:37.508Z,4.8
2022-08-19T20:51:27.534Z,5.1
2022-08-19T20:57:20.128Z,4.1
2022-08-19T21:03:12.343Z,3
2022-08-19T21:09:02.967Z,3.7
2022-08-19T21:14:55.550Z,4
2022-08-19T21:20:47.054Z,3.7
2022-08-19T21:26:37.395Z,2.9
2022-08-19T21:32:28.497Z,2.2
2022-08-19T21:38:21.327Z,2.9
2022-08-19T21:44:13.711Z,1.9
2022-08-19T21:50:05.379Z,1.6
2022-08-19T21:55:58.650Z,1.4
2022-08-19T22:02:23.123Z,2.2
2022-08-19T22:08:12.099Z,1.8
2022-08-19T22:14:09.363Z,2.1
2022-08-19T22:20:01.022Z,2.6
2022-08-19T22:25:54.587Z,2.1
2022-08-19T22:31:54.371Z,2.1
2022-08-19T22:37:49.580Z,1.5
2022-08-19T22:43:41.769Z,2.4
2022-08-19T22:49:38.661Z,2.9
2022-08-19T22:55:46.934Z,2.3
2022-08-19T23:01:42.628Z,3.5
2022-08-19T23:07:33.654Z,2.1
2022-08-19T23:13:24.749Z,3
2022-08-19T23:19:20.807Z,4
2022-08-19T23:25:15.752Z,3.1
2022-08-19T23:31:27.578Z,2.8
2022-08-19T23:37:19.745Z,2.3
2022-08-19T23:43:26.983Z,3.8
2022-08-19T23:49:33.636Z,4.5
2022-08-19T23:55:28.457Z,4.1
